• Join FlightAware (Why Join?)
  • Login
  • US Flag 
09:27PM EDT


 

Airport Tracker/Info


-or-


 

Live Flight TrackerFlight Track Log ✈ N269AM ✈ 27-Sep-2013 ✈ KSLE - KUAO

Flight Track Log - Related Links

Times and Time Zones

All times are in EDT time to prevent confusion due to time zone crossing. See the N269AM flight status page for this flight to view local times or setup timezone preferences in your user account.

Time Position Orientation Groundspeed Altitude Reporting Facility
EDT Latitude Longitude Course Direction KTS MPH feet Rate Location/Type
02:20PM 45.0672 -122.9922 North 85 98 5,000  Level Seattle Center
02:21PM 45.0908 -122.9867 North 86 99 5,400 420 Climbing Seattle Center
02:22PM 45.0683 -122.9926 North  Level FlightAware Approximate
02:22PM 45.1111 -122.9861 North 84 97 5,800  Level Seattle Center
02:22PM 45.1139 -122.9850 16° North 85 98 5,800 240 Level Seattle Center
02:23PM 45.0922 -122.9880 North  Level FlightAware Approximate
02:23PM 45.1353 -122.9889 353° North 79 91 6,100  Level Seattle Center
02:23PM 45.1358 -122.9886 19° North 80 92 6,100 -120 Level Seattle Center
02:24PM 45.1161 -122.9835 North  Level FlightAware Approximate
02:24PM 45.1583 -122.9950 349° North 81 93 6,000  Level Seattle Center
02:24PM 45.1581 -122.9931 101° East 81 93 6,000 -120 Level Seattle Center
02:25PM 45.1406 -122.9833 North  Level FlightAware Approximate
02:25PM 45.1858 -122.9892 North 86 99 5,900  Level Seattle Center
02:25PM 45.1875 -122.9894 353° North 92 106 5,900 -480 Level Seattle Center
02:26PM 45.1914 -122.9542 81° East 115 132 5,500 -420 Descending Seattle Center
02:26PM 45.1911 -122.9508 97° East 104 120 5,500 -240 Level Seattle Center
02:27PM 45.1764 -122.9233 127° Southeast 94 108 5,300 -120 Descending Seattle Center
02:27PM 45.1753 -122.9192 111° Southeast 102 117 5,400 -120 Climbing Seattle Center
02:28PM 45.1550 -122.9136 169° South 73 84 5,200 -300 Descending Seattle Center
02:28PM 45.1533 -122.9106 128° Southeast 86 99 5,100 -300 Descending Seattle Center
02:29PM 45.1333 -122.8958 153° Southeast 81 93 4,900 -60 Descending Seattle Center
02:30PM 45.1169 -122.8861 157° South 74 85 5,000 60 Climbing Seattle Center
02:30PM 45.1150 -122.8831 132° Southeast 77 89 5,000 60 Level Seattle Center
02:31PM 45.1011 -122.8711 149° Southeast 72 83 5,100  Climbing Seattle Center
02:31PM 45.0981 -122.8675 140° Southeast 74 85 5,000 -360 Descending Seattle Center
02:32PM 45.0772 -122.8500 149° Southeast 83 96 4,700 -300 Descending Seattle Center
02:32PM 45.0794 -122.8497 North 78 90 4,700 -420 Level Seattle Center
02:33PM 45.0572 -122.8367 157° South 82 94 4,300 -420 Descending Seattle Center
02:33PM 45.0592 -122.8358 17° North 81 93 4,300 -360 Level Seattle Center
02:34PM 45.0428 -122.8181 143° Southeast 77 89 4,000 -300 Descending Seattle Center
02:34PM 45.0431 -122.8161 79° East 77 89 4,000 -120 Level Seattle Center
02:35PM 45.0250 -122.7944 140° Southeast 75 86 3,900 -120 Descending Seattle Center
02:35PM 45.0278 -122.7953 348° North 76 87 3,900 -240 Level Seattle Center
02:36PM 45.0103 -122.7761 142° Southeast 76 87 3,700 -300 Descending Seattle Center
02:36PM 45.0086 -122.7778 215° Southwest 70 81 3,600 -120 Descending Seattle Center
02:37PM 45.0147 -122.7958 296° West 85 98 3,600  Level Seattle Center
02:38PM 45.0406 -122.8094 340° North 99 114 3,600 -180 Level Seattle Center
02:39PM 45.0725 -122.8058 North 103 119 3,300 -300 Descending Seattle Center